sensor_id;sensor_type;location;lat;lon;timestamp;P1;durP1;ratioP1;P2;durP2;ratioP2
13051;SDS011;6592;47.484;9.726;2023-02-28T00:01:26;5.60;;;2.70;;
13051;SDS011;6592;47.484;9.726;2023-02-28T00:03:55;5.40;;;2.50;;
13051;SDS011;6592;47.484;9.726;2023-02-28T00:06:23;5.87;;;2.90;;
13051;SDS011;6592;47.484;9.726;2023-02-28T00:08:52;8.23;;;2.80;;
13051;SDS011;6592;47.484;9.726;2023-02-28T00:11:20;8.57;;;3.07;;
13051;SDS011;6592;47.484;9.726;2023-02-28T00:13:49;7.63;;;2.97;;
13051;SDS011;6592;47.484;9.726;2023-02-28T00:16:18;6.10;;;3.00;;
13051;SDS011;6592;47.484;9.726;2023-02-28T00:18:49;5.83;;;3.13;;
13051;SDS011;6592;47.484;9.726;2023-02-28T00:21:18;7.27;;;3.03;;
13051;SDS011;6592;47.484;9.726;2023-02-28T00:23:47;8.10;;;3.27;;
13051;SDS011;6592;47.484;9.726;2023-02-28T00:26:16;5.70;;;2.90;;
13051;SDS011;6592;47.484;9.726;2023-02-28T00:28:47;6.22;;;2.92;;
13051;SDS011;6592;47.484;9.726;2023-02-28T00:31:15;8.97;;;3.27;;
13051;SDS011;6592;47.484;9.726;2023-02-28T00:33:44;6.63;;;3.10;;
13051;SDS011;6592;47.484;9.726;2023-02-28T00:36:14;7.07;;;3.03;;
13051;SDS011;6592;47.484;9.726;2023-02-28T00:38:42;5.90;;;2.70;;
13051;SDS011;6592;47.484;9.726;2023-02-28T00:41:10;7.13;;;3.33;;
13051;SDS011;6592;47.484;9.726;2023-02-28T00:43:39;8.13;;;2.87;;
13051;SDS011;6592;47.484;9.726;2023-02-28T00:46:08;7.57;;;3.47;;
13051;SDS011;6592;47.484;9.726;2023-02-28T00:48:36;7.03;;;3.27;;
13051;SDS011;6592;47.484;9.726;2023-02-28T00:51:05;6.40;;;2.93;;
13051;SDS011;6592;47.484;9.726;2023-02-28T00:53:35;6.73;;;3.00;;
13051;SDS011;6592;47.484;9.726;2023-02-28T00:56:03;7.20;;;3.23;;
13051;SDS011;6592;47.484;9.726;2023-02-28T00:58:32;5.67;;;2.87;;
13051;SDS011;6592;47.484;9.726;2023-02-28T01:01:00;7.60;;;3.27;;
13051;SDS011;6592;47.484;9.726;2023-02-28T01:03:29;8.27;;;3.00;;
13051;SDS011;6592;47.484;9.726;2023-02-28T01:05:57;7.33;;;3.00;;
13051;SDS011;6592;47.484;9.726;2023-02-28T01:08:26;7.17;;;2.83;;
13051;SDS011;6592;47.484;9.726;2023-02-28T01:10:56;6.17;;;2.77;;
13051;SDS011;6592;47.484;9.726;2023-02-28T01:13:24;6.37;;;2.40;;
13051;SDS011;6592;47.484;9.726;2023-02-28T01:15:54;7.87;;;3.50;;
13051;SDS011;6592;47.484;9.726;2023-02-28T01:18:23;5.75;;;2.83;;
13051;SDS011;6592;47.484;9.726;2023-02-28T01:20:52;5.90;;;2.53;;
13051;SDS011;6592;47.484;9.726;2023-02-28T01:23:20;8.47;;;3.27;;
13051;SDS011;6592;47.484;9.726;2023-02-28T01:25:50;5.83;;;2.73;;
13051;SDS011;6592;47.484;9.726;2023-02-28T01:28:20;9.57;;;3.60;;
13051;SDS011;6592;47.484;9.726;2023-02-28T01:30:49;7.27;;;3.13;;
13051;SDS011;6592;47.484;9.726;2023-02-28T01:33:18;7.10;;;3.37;;
13051;SDS011;6592;47.484;9.726;2023-02-28T01:35:46;7.07;;;3.43;;
13051;SDS011;6592;47.484;9.726;2023-02-28T01:38:15;7.13;;;3.10;;
13051;SDS011;6592;47.484;9.726;2023-02-28T01:40:48;6.07;;;3.13;;
13051;SDS011;6592;47.484;9.726;2023-02-28T01:43:20;7.17;;;3.10;;
13051;SDS011;6592;47.484;9.726;2023-02-28T01:45:50;9.27;;;3.53;;
13051;SDS011;6592;47.484;9.726;2023-02-28T01:48:20;5.97;;;2.53;;
13051;SDS011;6592;47.484;9.726;2023-02-28T01:50:52;7.57;;;3.37;;
13051;SDS011;6592;47.484;9.726;2023-02-28T01:53:24;8.00;;;3.00;;
13051;SDS011;6592;47.484;9.726;2023-02-28T01:55:56;5.73;;;2.80;;
13051;SDS011;6592;47.484;9.726;2023-02-28T01:58:27;6.27;;;3.00;;
13051;SDS011;6592;47.484;9.726;2023-02-28T02:00:55;7.63;;;3.23;;
13051;SDS011;6592;47.484;9.726;2023-02-28T02:03:23;6.87;;;3.37;;
13051;SDS011;6592;47.484;9.726;2023-02-28T02:05:52;7.43;;;3.03;;
13051;SDS011;6592;47.484;9.726;2023-02-28T02:08:21;7.63;;;3.20;;
13051;SDS011;6592;47.484;9.726;2023-02-28T02:10:52;8.10;;;3.55;;
13051;SDS011;6592;47.484;9.726;2023-02-28T02:13:28;8.33;;;3.73;;
13051;SDS011;6592;47.484;9.726;2023-02-28T02:16:23;6.70;;;3.00;;
13051;SDS011;6592;47.484;9.726;2023-02-28T02:19:04;6.93;;;3.30;;
13051;SDS011;6592;47.484;9.726;2023-02-28T02:22:02;7.73;;;3.33;;
13051;SDS011;6592;47.484;9.726;2023-02-28T02:30:50;7.90;;;2.87;;
13051;SDS011;6592;47.484;9.726;2023-02-28T02:36:42;8.60;;;3.73;;
13051;SDS011;6592;47.484;9.726;2023-02-28T02:39:16;7.33;;;3.10;;
13051;SDS011;6592;47.484;9.726;2023-02-28T02:41:52;8.33;;;3.70;;
13051;SDS011;6592;47.484;9.726;2023-02-28T02:44:21;8.47;;;3.10;;
13051;SDS011;6592;47.484;9.726;2023-02-28T02:46:54;7.37;;;3.10;;
13051;SDS011;6592;47.484;9.726;2023-02-28T02:49:31;6.43;;;2.90;;
13051;SDS011;6592;47.484;9.726;2023-02-28T02:52:02;7.80;;;3.47;;
13051;SDS011;6592;47.484;9.726;2023-02-28T02:54:33;9.10;;;3.40;;
13051;SDS011;6592;47.484;9.726;2023-02-28T02:57:05;7.93;;;3.27;;
13051;SDS011;6592;47.484;9.726;2023-02-28T02:59:36;8.82;;;3.78;;
13051;SDS011;6592;47.484;9.726;2023-02-28T03:02:08;7.65;;;3.47;;
13051;SDS011;6592;47.484;9.726;2023-02-28T03:04:42;8.57;;;3.40;;
13051;SDS011;6592;47.484;9.726;2023-02-28T03:07:16;9.87;;;3.77;;
13051;SDS011;6592;47.484;9.726;2023-02-28T03:09:49;8.13;;;3.53;;
13051;SDS011;6592;47.484;9.726;2023-02-28T03:12:19;6.57;;;2.90;;
13051;SDS011;6592;47.484;9.726;2023-02-28T03:17:31;6.13;;;2.73;;
13051;SDS011;6592;47.484;9.726;2023-02-28T03:20:21;7.20;;;3.03;;
13051;SDS011;6592;47.484;9.726;2023-02-28T03:23:10;8.43;;;3.60;;
13051;SDS011;6592;47.484;9.726;2023-02-28T03:25:47;7.80;;;3.30;;
13051;SDS011;6592;47.484;9.726;2023-02-28T03:28:27;7.37;;;3.57;;
13051;SDS011;6592;47.484;9.726;2023-02-28T03:31:00;8.50;;;3.30;;
13051;SDS011;6592;47.484;9.726;2023-02-28T03:33:36;9.47;;;3.83;;
13051;SDS011;6592;47.484;9.726;2023-02-28T03:36:10;9.80;;;3.73;;
13051;SDS011;6592;47.484;9.726;2023-02-28T03:38:44;8.60;;;3.50;;
13051;SDS011;6592;47.484;9.726;2023-02-28T03:41:15;7.00;;;3.40;;
13051;SDS011;6592;47.484;9.726;2023-02-28T03:43:48;8.90;;;3.90;;
13051;SDS011;6592;47.484;9.726;2023-02-28T03:46:19;8.43;;;3.37;;
13051;SDS011;6592;47.484;9.726;2023-02-28T03:48:51;7.03;;;3.47;;
13051;SDS011;6592;47.484;9.726;2023-02-28T03:51:24;7.90;;;3.50;;
13051;SDS011;6592;47.484;9.726;2023-02-28T03:53:56;7.10;;;3.40;;
13051;SDS011;6592;47.484;9.726;2023-02-28T03:56:30;6.93;;;2.93;;
13051;SDS011;6592;47.484;9.726;2023-02-28T03:59:02;6.70;;;3.10;;
13051;SDS011;6592;47.484;9.726;2023-02-28T04:01:35;8.27;;;3.60;;
13051;SDS011;6592;47.484;9.726;2023-02-28T04:04:07;7.93;;;3.10;;
13051;SDS011;6592;47.484;9.726;2023-02-28T04:06:38;8.90;;;4.03;;
13051;SDS011;6592;47.484;9.726;2023-02-28T04:09:08;7.30;;;3.30;;
13051;SDS011;6592;47.484;9.726;2023-02-28T04:11:37;7.40;;;3.37;;
13051;SDS011;6592;47.484;9.726;2023-02-28T04:14:08;7.07;;;3.30;;
13051;SDS011;6592;47.484;9.726;2023-02-28T04:16:37;9.83;;;3.80;;
13051;SDS011;6592;47.484;9.726;2023-02-28T04:19:08;8.63;;;3.50;;
13051;SDS011;6592;47.484;9.726;2023-02-28T04:21:39;7.67;;;3.60;;
13051;SDS011;6592;47.484;9.726;2023-02-28T04:26:41;9.23;;;3.70;;
13051;SDS011;6592;47.484;9.726;2023-02-28T04:29:11;9.10;;;3.57;;
13051;SDS011;6592;47.484;9.726;2023-02-28T04:31:41;7.37;;;3.43;;
13051;SDS011;6592;47.484;9.726;2023-02-28T04:34:09;10.03;;;3.67;;
13051;SDS011;6592;47.484;9.726;2023-02-28T04:36:39;7.97;;;3.70;;
13051;SDS011;6592;47.484;9.726;2023-02-28T04:39:07;8.53;;;3.63;;
13051;SDS011;6592;47.484;9.726;2023-02-28T04:41:37;8.70;;;3.53;;
13051;SDS011;6592;47.484;9.726;2023-02-28T04:44:05;7.60;;;3.37;;
13051;SDS011;6592;47.484;9.726;2023-02-28T04:46:33;10.67;;;4.47;;
13051;SDS011;6592;47.484;9.726;2023-02-28T04:49:02;8.23;;;3.30;;
13051;SDS011;6592;47.484;9.726;2023-02-28T04:51:30;6.80;;;3.23;;
13051;SDS011;6592;47.484;9.726;2023-02-28T04:54:00;10.20;;;4.03;;
13051;SDS011;6592;47.484;9.726;2023-02-28T04:56:28;9.23;;;3.13;;
13051;SDS011;6592;47.484;9.726;2023-02-28T04:58:57;7.63;;;3.50;;
13051;SDS011;6592;47.484;9.726;2023-02-28T05:01:26;7.23;;;3.47;;
13051;SDS011;6592;47.484;9.726;2023-02-28T05:03:57;9.90;;;3.77;;
13051;SDS011;6592;47.484;9.726;2023-02-28T05:06:27;8.77;;;4.13;;
13051;SDS011;6592;47.484;9.726;2023-02-28T05:08:56;8.97;;;3.50;;
13051;SDS011;6592;47.484;9.726;2023-02-28T05:11:26;8.60;;;3.90;;
13051;SDS011;6592;47.484;9.726;2023-02-28T05:14:00;10.67;;;3.77;;
13051;SDS011;6592;47.484;9.726;2023-02-28T05:16:29;8.23;;;3.30;;
13051;SDS011;6592;47.484;9.726;2023-02-28T05:18:58;8.13;;;3.23;;
13051;SDS011;6592;47.484;9.726;2023-02-28T05:21:27;10.10;;;3.60;;
13051;SDS011;6592;47.484;9.726;2023-02-28T05:23:58;7.40;;;3.50;;
13051;SDS011;6592;47.484;9.726;2023-02-28T05:26:29;6.67;;;3.23;;
13051;SDS011;6592;47.484;9.726;2023-02-28T05:28:58;8.43;;;3.03;;
13051;SDS011;6592;47.484;9.726;2023-02-28T05:31:26;7.93;;;3.50;;
13051;SDS011;6592;47.484;9.726;2023-02-28T05:33:55;7.50;;;3.03;;
13051;SDS011;6592;47.484;9.726;2023-02-28T05:36:23;8.03;;;3.73;;
13051;SDS011;6592;47.484;9.726;2023-02-28T05:38:52;7.47;;;3.17;;
13051;SDS011;6592;47.484;9.726;2023-02-28T05:41:20;7.93;;;3.67;;
13051;SDS011;6592;47.484;9.726;2023-02-28T05:43:50;9.20;;;3.30;;
13051;SDS011;6592;47.484;9.726;2023-02-28T05:46:18;9.13;;;3.70;;
13051;SDS011;6592;47.484;9.726;2023-02-28T05:48:47;8.63;;;3.47;;
13051;SDS011;6592;47.484;9.726;2023-02-28T05:51:16;8.03;;;3.33;;
13051;SDS011;6592;47.484;9.726;2023-02-28T05:53:45;6.73;;;2.97;;
13051;SDS011;6592;47.484;9.726;2023-02-28T05:56:14;7.97;;;3.40;;
13051;SDS011;6592;47.484;9.726;2023-02-28T05:58:43;8.20;;;3.87;;
13051;SDS011;6592;47.484;9.726;2023-02-28T06:01:23;8.10;;;3.77;;
13051;SDS011;6592;47.484;9.726;2023-02-28T06:03:54;7.57;;;3.47;;
13051;SDS011;6592;47.484;9.726;2023-02-28T06:06:22;8.77;;;4.23;;
13051;SDS011;6592;47.484;9.726;2023-02-28T06:08:50;8.00;;;3.70;;
13051;SDS011;6592;47.484;9.726;2023-02-28T06:11:19;7.43;;;3.20;;
13051;SDS011;6592;47.484;9.726;2023-02-28T06:13:47;10.33;;;3.53;;
13051;SDS011;6592;47.484;9.726;2023-02-28T06:16:16;8.47;;;4.10;;
13051;SDS011;6592;47.484;9.726;2023-02-28T06:18:45;11.33;;;4.47;;
13051;SDS011;6592;47.484;9.726;2023-02-28T06:21:13;9.60;;;3.90;;
13051;SDS011;6592;47.484;9.726;2023-02-28T06:23:42;10.27;;;4.07;;
13051;SDS011;6592;47.484;9.726;2023-02-28T06:26:10;9.67;;;3.60;;
13051;SDS011;6592;47.484;9.726;2023-02-28T06:28:38;8.20;;;3.87;;
13051;SDS011;6592;47.484;9.726;2023-02-28T06:31:07;7.37;;;3.33;;
13051;SDS011;6592;47.484;9.726;2023-02-28T06:33:37;8.03;;;3.10;;
13051;SDS011;6592;47.484;9.726;2023-02-28T06:36:08;9.83;;;3.67;;
13051;SDS011;6592;47.484;9.726;2023-02-28T06:38:38;8.82;;;3.65;;
13051;SDS011;6592;47.484;9.726;2023-02-28T06:41:07;11.53;;;4.40;;
13051;SDS011;6592;47.484;9.726;2023-02-28T06:43:37;9.50;;;3.80;;
13051;SDS011;6592;47.484;9.726;2023-02-28T06:46:09;9.23;;;4.20;;
13051;SDS011;6592;47.484;9.726;2023-02-28T06:48:41;14.87;;;3.30;;
13051;SDS011;6592;47.484;9.726;2023-02-28T06:51:12;9.80;;;4.03;;
13051;SDS011;6592;47.484;9.726;2023-02-28T06:53:42;6.77;;;3.20;;
13051;SDS011;6592;47.484;9.726;2023-02-28T06:56:12;7.30;;;3.43;;
13051;SDS011;6592;47.484;9.726;2023-02-28T06:58:41;8.23;;;3.80;;
13051;SDS011;6592;47.484;9.726;2023-02-28T07:03:41;14.20;;;5.60;;
13051;SDS011;6592;47.484;9.726;2023-02-28T07:06:09;8.27;;;3.60;;
13051;SDS011;6592;47.484;9.726;2023-02-28T07:08:39;8.00;;;3.80;;
13051;SDS011;6592;47.484;9.726;2023-02-28T07:11:07;11.57;;;4.90;;
13051;SDS011;6592;47.484;9.726;2023-02-28T07:13:36;9.77;;;4.43;;
13051;SDS011;6592;47.484;9.726;2023-02-28T07:16:05;9.57;;;3.80;;
13051;SDS011;6592;47.484;9.726;2023-02-28T07:18:35;7.50;;;3.55;;
13051;SDS011;6592;47.484;9.726;2023-02-28T07:21:04;9.63;;;4.13;;
13051;SDS011;6592;47.484;9.726;2023-02-28T07:23:34;9.03;;;3.90;;
13051;SDS011;6592;47.484;9.726;2023-02-28T07:26:06;16.23;;;6.50;;
13051;SDS011;6592;47.484;9.726;2023-02-28T07:28:37;13.00;;;5.40;;
13051;SDS011;6592;47.484;9.726;2023-02-28T07:31:06;14.93;;;7.07;;
13051;SDS011;6592;47.484;9.726;2023-02-28T07:33:35;14.00;;;4.40;;
13051;SDS011;6592;47.484;9.726;2023-02-28T07:36:04;12.10;;;3.70;;
13051;SDS011;6592;47.484;9.726;2023-02-28T07:38:35;10.43;;;4.30;;
13051;SDS011;6592;47.484;9.726;2023-02-28T07:41:06;8.00;;;3.53;;
13051;SDS011;6592;47.484;9.726;2023-02-28T07:43:34;10.53;;;3.90;;
13051;SDS011;6592;47.484;9.726;2023-02-28T07:46:03;12.97;;;3.80;;
13051;SDS011;6592;47.484;9.726;2023-02-28T07:48:33;10.47;;;4.60;;
13051;SDS011;6592;47.484;9.726;2023-02-28T07:51:01;8.83;;;4.23;;
13051;SDS011;6592;47.484;9.726;2023-02-28T07:53:30;8.07;;;4.00;;
13051;SDS011;6592;47.484;9.726;2023-02-28T07:55:58;13.47;;;4.13;;
13051;SDS011;6592;47.484;9.726;2023-02-28T07:58:30;11.40;;;4.97;;
13051;SDS011;6592;47.484;9.726;2023-02-28T08:01:04;8.53;;;4.10;;
13051;SDS011;6592;47.484;9.726;2023-02-28T08:03:33;8.60;;;4.23;;
13051;SDS011;6592;47.484;9.726;2023-02-28T08:06:01;14.23;;;5.73;;
13051;SDS011;6592;47.484;9.726;2023-02-28T08:08:30;10.17;;;4.40;;
13051;SDS011;6592;47.484;9.726;2023-02-28T08:10:59;8.63;;;4.10;;
13051;SDS011;6592;47.484;9.726;2023-02-28T08:13:29;11.40;;;4.73;;
13051;SDS011;6592;47.484;9.726;2023-02-28T08:16:00;9.77;;;4.63;;
13051;SDS011;6592;47.484;9.726;2023-02-28T08:18:29;9.07;;;4.40;;
13051;SDS011;6592;47.484;9.726;2023-02-28T08:20:59;10.40;;;4.27;;
13051;SDS011;6592;47.484;9.726;2023-02-28T08:23:33;9.20;;;3.90;;
13051;SDS011;6592;47.484;9.726;2023-02-28T08:26:01;8.70;;;4.30;;
13051;SDS011;6592;47.484;9.726;2023-02-28T08:28:31;8.47;;;4.20;;
13051;SDS011;6592;47.484;9.726;2023-02-28T08:31:00;8.90;;;4.20;;
13051;SDS011;6592;47.484;9.726;2023-02-28T08:33:28;10.10;;;4.13;;
13051;SDS011;6592;47.484;9.726;2023-02-28T08:35:57;10.60;;;4.27;;
13051;SDS011;6592;47.484;9.726;2023-02-28T08:38:26;8.97;;;4.00;;
13051;SDS011;6592;47.484;9.726;2023-02-28T08:40:56;11.80;;;4.33;;
13051;SDS011;6592;47.484;9.726;2023-02-28T08:43:25;8.73;;;4.28;;
13051;SDS011;6592;47.484;9.726;2023-02-28T08:45:55;10.57;;;4.60;;
13051;SDS011;6592;47.484;9.726;2023-02-28T08:48:24;10.40;;;4.27;;
13051;SDS011;6592;47.484;9.726;2023-02-28T08:50:56;11.40;;;4.23;;
13051;SDS011;6592;47.484;9.726;2023-02-28T08:53:33;11.60;;;4.93;;
13051;SDS011;6592;47.484;9.726;2023-02-28T08:56:03;8.70;;;3.67;;
13051;SDS011;6592;47.484;9.726;2023-02-28T08:58:33;10.07;;;4.23;;
13051;SDS011;6592;47.484;9.726;2023-02-28T09:01:08;9.00;;;4.40;;
13051;SDS011;6592;47.484;9.726;2023-02-28T09:03:38;8.57;;;4.33;;
13051;SDS011;6592;47.484;9.726;2023-02-28T09:06:08;10.50;;;4.70;;
13051;SDS011;6592;47.484;9.726;2023-02-28T09:08:37;11.18;;;4.50;;
13051;SDS011;6592;47.484;9.726;2023-02-28T09:11:06;9.05;;;4.35;;
13051;SDS011;6592;47.484;9.726;2023-02-28T09:13:35;9.93;;;4.95;;
13051;SDS011;6592;47.484;9.726;2023-02-28T09:16:04;10.30;;;4.75;;
13051;SDS011;6592;47.484;9.726;2023-02-28T09:18:35;9.68;;;4.38;;
13051;SDS011;6592;47.484;9.726;2023-02-28T09:21:04;10.30;;;4.93;;
13051;SDS011;6592;47.484;9.726;2023-02-28T09:23:33;8.82;;;4.32;;
13051;SDS011;6592;47.484;9.726;2023-02-28T09:26:04;11.95;;;5.90;;
13051;SDS011;6592;47.484;9.726;2023-02-28T09:28:33;8.90;;;4.72;;
13051;SDS011;6592;47.484;9.726;2023-02-28T09:31:01;11.02;;;4.78;;
13051;SDS011;6592;47.484;9.726;2023-02-28T09:33:31;9.77;;;5.40;;
13051;SDS011;6592;47.484;9.726;2023-02-28T09:36:02;11.52;;;6.07;;
13051;SDS011;6592;47.484;9.726;2023-02-28T09:38:31;12.98;;;5.90;;
13051;SDS011;6592;47.484;9.726;2023-02-28T09:41:00;11.95;;;5.63;;
13051;SDS011;6592;47.484;9.726;2023-02-28T09:43:31;10.40;;;5.37;;
13051;SDS011;6592;47.484;9.726;2023-02-28T09:46:05;10.63;;;5.57;;
13051;SDS011;6592;47.484;9.726;2023-02-28T09:48:39;10.35;;;5.65;;
13051;SDS011;6592;47.484;9.726;2023-02-28T09:51:15;9.82;;;5.70;;
13051;SDS011;6592;47.484;9.726;2023-02-28T09:54:01;8.25;;;5.13;;
13051;SDS011;6592;47.484;9.726;2023-02-28T09:56:30;9.18;;;5.60;;
13051;SDS011;6592;47.484;9.726;2023-02-28T09:59:04;10.52;;;5.55;;
13051;SDS011;6592;47.484;9.726;2023-02-28T10:01:39;9.75;;;5.30;;
13051;SDS011;6592;47.484;9.726;2023-02-28T10:04:16;9.35;;;5.50;;
13051;SDS011;6592;47.484;9.726;2023-02-28T10:06:58;11.10;;;5.85;;
13051;SDS011;6592;47.484;9.726;2023-02-28T10:09:30;10.10;;;5.50;;
13051;SDS011;6592;47.484;9.726;2023-02-28T10:12:02;9.88;;;6.22;;
13051;SDS011;6592;47.484;9.726;2023-02-28T10:14:33;9.38;;;6.18;;
13051;SDS011;6592;47.484;9.726;2023-02-28T10:17:03;9.57;;;5.75;;
13051;SDS011;6592;47.484;9.726;2023-02-28T10:19:38;8.95;;;6.07;;
13051;SDS011;6592;47.484;9.726;2023-02-28T10:22:13;8.55;;;5.78;;
13051;SDS011;6592;47.484;9.726;2023-02-28T10:24:45;9.68;;;5.47;;
13051;SDS011;6592;47.484;9.726;2023-02-28T10:27:15;7.47;;;5.10;;
13051;SDS011;6592;47.484;9.726;2023-02-28T10:29:46;7.57;;;5.55;;
13051;SDS011;6592;47.484;9.726;2023-02-28T10:32:17;7.82;;;5.15;;
13051;SDS011;6592;47.484;9.726;2023-02-28T10:34:49;7.65;;;5.03;;
13051;SDS011;6592;47.484;9.726;2023-02-28T10:37:21;6.90;;;5.18;;
13051;SDS011;6592;47.484;9.726;2023-02-28T10:39:49;9.18;;;5.80;;
13051;SDS011;6592;47.484;9.726;2023-02-28T10:42:19;9.45;;;5.85;;
13051;SDS011;6592;47.484;9.726;2023-02-28T10:45:10;7.53;;;5.22;;
13051;SDS011;6592;47.484;9.726;2023-02-28T10:47:42;7.32;;;5.43;;
13051;SDS011;6592;47.484;9.726;2023-02-28T10:50:27;8.38;;;5.28;;
13051;SDS011;6592;47.484;9.726;2023-02-28T10:53:10;8.10;;;5.25;;
13051;SDS011;6592;47.484;9.726;2023-02-28T10:55:59;8.10;;;5.90;;
13051;SDS011;6592;47.484;9.726;2023-02-28T10:58:29;6.85;;;5.05;;
13051;SDS011;6592;47.484;9.726;2023-02-28T11:01:10;7.53;;;5.55;;
13051;SDS011;6592;47.484;9.726;2023-02-28T11:03:41;7.40;;;5.13;;
13051;SDS011;6592;47.484;9.726;2023-02-28T11:06:13;8.02;;;5.95;;
13051;SDS011;6592;47.484;9.726;2023-02-28T11:08:46;8.38;;;5.43;;
13051;SDS011;6592;47.484;9.726;2023-02-28T11:11:17;9.05;;;5.50;;
13051;SDS011;6592;47.484;9.726;2023-02-28T11:13:47;6.30;;;4.70;;
13051;SDS011;6592;47.484;9.726;2023-02-28T11:16:18;7.22;;;5.10;;
13051;SDS011;6592;47.484;9.726;2023-02-28T11:18:48;8.60;;;6.00;;
13051;SDS011;6592;47.484;9.726;2023-02-28T11:21:19;7.95;;;5.78;;
13051;SDS011;6592;47.484;9.726;2023-02-28T11:23:53;8.63;;;5.72;;
13051;SDS011;6592;47.484;9.726;2023-02-28T11:26:38;8.13;;;5.07;;
13051;SDS011;6592;47.484;9.726;2023-02-28T11:29:16;8.10;;;5.85;;
13051;SDS011;6592;47.484;9.726;2023-02-28T11:32:04;7.47;;;5.65;;
13051;SDS011;6592;47.484;9.726;2023-02-28T11:34:40;8.07;;;5.72;;
13051;SDS011;6592;47.484;9.726;2023-02-28T11:37:13;8.40;;;5.60;;
13051;SDS011;6592;47.484;9.726;2023-02-28T11:39:44;6.32;;;5.10;;
13051;SDS011;6592;47.484;9.726;2023-02-28T11:42:20;7.70;;;5.60;;
13051;SDS011;6592;47.484;9.726;2023-02-28T11:45:03;6.93;;;5.25;;
13051;SDS011;6592;47.484;9.726;2023-02-28T11:47:45;8.48;;;5.82;;
13051;SDS011;6592;47.484;9.726;2023-02-28T11:50:23;7.75;;;5.60;;
13051;SDS011;6592;47.484;9.726;2023-02-28T11:53:10;7.32;;;5.40;;
13051;SDS011;6592;47.484;9.726;2023-02-28T11:55:49;7.83;;;5.70;;
13051;SDS011;6592;47.484;9.726;2023-02-28T12:01:26;8.27;;;5.57;;
13051;SDS011;6592;47.484;9.726;2023-02-28T12:04:04;7.75;;;5.68;;
13051;SDS011;6592;47.484;9.726;2023-02-28T12:09:20;6.97;;;5.28;;
13051;SDS011;6592;47.484;9.726;2023-02-28T12:12:03;6.97;;;5.28;;
13051;SDS011;6592;47.484;9.726;2023-02-28T12:14:47;7.35;;;5.65;;
13051;SDS011;6592;47.484;9.726;2023-02-28T12:17:44;7.68;;;5.57;;
13051;SDS011;6592;47.484;9.726;2023-02-28T12:20:23;7.55;;;5.40;;
13051;SDS011;6592;47.484;9.726;2023-02-28T12:23:15;7.78;;;5.70;;
13051;SDS011;6592;47.484;9.726;2023-02-28T12:25:58;8.48;;;5.97;;
13051;SDS011;6592;47.484;9.726;2023-02-28T12:28:34;8.25;;;6.20;;
13051;SDS011;6592;47.484;9.726;2023-02-28T12:31:06;7.60;;;5.40;;
13051;SDS011;6592;47.484;9.726;2023-02-28T12:33:39;7.47;;;5.60;;
13051;SDS011;6592;47.484;9.726;2023-02-28T12:36:13;9.32;;;6.13;;
13051;SDS011;6592;47.484;9.726;2023-02-28T12:38:47;8.07;;;5.80;;
13051;SDS011;6592;47.484;9.726;2023-02-28T12:41:22;9.30;;;6.13;;
13051;SDS011;6592;47.484;9.726;2023-02-28T12:44:00;8.13;;;5.75;;
13051;SDS011;6592;47.484;9.726;2023-02-28T12:46:32;9.02;;;5.85;;
13051;SDS011;6592;47.484;9.726;2023-02-28T12:49:06;8.95;;;5.95;;
13051;SDS011;6592;47.484;9.726;2023-02-28T12:51:38;9.52;;;6.47;;
13051;SDS011;6592;47.484;9.726;2023-02-28T12:54:10;9.05;;;6.35;;
13051;SDS011;6592;47.484;9.726;2023-02-28T12:56:47;8.15;;;6.03;;
13051;SDS011;6592;47.484;9.726;2023-02-28T12:59:25;8.60;;;5.70;;
13051;SDS011;6592;47.484;9.726;2023-02-28T13:02:01;9.18;;;6.03;;
13051;SDS011;6592;47.484;9.726;2023-02-28T13:05:07;8.90;;;5.43;;
13051;SDS011;6592;47.484;9.726;2023-02-28T13:10:48;8.38;;;5.82;;
13051;SDS011;6592;47.484;9.726;2023-02-28T13:13:21;9.65;;;6.20;;
13051;SDS011;6592;47.484;9.726;2023-02-28T13:16:01;10.23;;;6.00;;
13051;SDS011;6592;47.484;9.726;2023-02-28T13:18:33;10.00;;;5.90;;
13051;SDS011;6592;47.484;9.726;2023-02-28T13:21:06;8.18;;;5.63;;
13051;SDS011;6592;47.484;9.726;2023-02-28T13:29:41;10.15;;;5.88;;
13051;SDS011;6592;47.484;9.726;2023-02-28T13:32:30;9.75;;;5.93;;
13051;SDS011;6592;47.484;9.726;2023-02-28T13:35:15;9.43;;;6.15;;
13051;SDS011;6592;47.484;9.726;2023-02-28T13:44:07;7.93;;;5.60;;
13051;SDS011;6592;47.484;9.726;2023-02-28T13:47:13;9.38;;;5.78;;
13051;SDS011;6592;47.484;9.726;2023-02-28T13:49:45;8.18;;;5.60;;
13051;SDS011;6592;47.484;9.726;2023-02-28T13:52:15;9.13;;;6.35;;
13051;SDS011;6592;47.484;9.726;2023-02-28T13:54:52;9.25;;;6.00;;
13051;SDS011;6592;47.484;9.726;2023-02-28T13:57:41;8.13;;;6.00;;
13051;SDS011;6592;47.484;9.726;2023-02-28T14:00:28;8.63;;;5.97;;
13051;SDS011;6592;47.484;9.726;2023-02-28T14:03:14;7.93;;;5.88;;
13051;SDS011;6592;47.484;9.726;2023-02-28T14:06:18;8.20;;;5.43;;
13051;SDS011;6592;47.484;9.726;2023-02-28T14:08:55;8.73;;;5.85;;
13051;SDS011;6592;47.484;9.726;2023-02-28T14:11:28;9.07;;;5.68;;
13051;SDS011;6592;47.484;9.726;2023-02-28T14:13:59;9.27;;;5.95;;
13051;SDS011;6592;47.484;9.726;2023-02-28T14:16:34;8.82;;;5.82;;
13051;SDS011;6592;47.484;9.726;2023-02-28T14:19:10;8.10;;;5.63;;
13051;SDS011;6592;47.484;9.726;2023-02-28T14:21:46;10.70;;;6.50;;
13051;SDS011;6592;47.484;9.726;2023-02-28T14:24:41;8.85;;;5.57;;
13051;SDS011;6592;47.484;9.726;2023-02-28T14:27:28;8.23;;;5.35;;
13051;SDS011;6592;47.484;9.726;2023-02-28T14:36:07;10.38;;;6.35;;
13051;SDS011;6592;47.484;9.726;2023-02-28T14:38:45;10.60;;;6.28;;
13051;SDS011;6592;47.484;9.726;2023-02-28T14:41:16;9.95;;;6.25;;
13051;SDS011;6592;47.484;9.726;2023-02-28T14:43:52;10.70;;;6.55;;
13051;SDS011;6592;47.484;9.726;2023-02-28T14:46:22;11.35;;;6.32;;
13051;SDS011;6592;47.484;9.726;2023-02-28T14:48:55;10.05;;;6.00;;
13051;SDS011;6592;47.484;9.726;2023-02-28T14:51:23;11.50;;;6.43;;
13051;SDS011;6592;47.484;9.726;2023-02-28T14:53:56;11.15;;;6.03;;
13051;SDS011;6592;47.484;9.726;2023-02-28T14:56:27;11.38;;;6.28;;
13051;SDS011;6592;47.484;9.726;2023-02-28T15:01:26;10.93;;;5.82;;
13051;SDS011;6592;47.484;9.726;2023-02-28T15:03:59;11.73;;;6.07;;
13051;SDS011;6592;47.484;9.726;2023-02-28T15:06:29;12.13;;;6.32;;
13051;SDS011;6592;47.484;9.726;2023-02-28T15:09:09;13.65;;;6.13;;
13051;SDS011;6592;47.484;9.726;2023-02-28T15:11:41;12.23;;;6.20;;
13051;SDS011;6592;47.484;9.726;2023-02-28T15:14:14;11.73;;;6.35;;
13051;SDS011;6592;47.484;9.726;2023-02-28T15:16:46;11.32;;;5.78;;
13051;SDS011;6592;47.484;9.726;2023-02-28T15:19:20;11.75;;;5.88;;
13051;SDS011;6592;47.484;9.726;2023-02-28T15:21:53;12.80;;;6.13;;
13051;SDS011;6592;47.484;9.726;2023-02-28T15:24:29;12.13;;;6.25;;
13051;SDS011;6592;47.484;9.726;2023-02-28T15:27:03;12.50;;;6.18;;
13051;SDS011;6592;47.484;9.726;2023-02-28T15:29:37;10.98;;;6.03;;
13051;SDS011;6592;47.484;9.726;2023-02-28T15:32:21;11.48;;;5.88;;
13051;SDS011;6592;47.484;9.726;2023-02-28T15:34:53;9.43;;;4.93;;
13051;SDS011;6592;47.484;9.726;2023-02-28T15:37:27;12.73;;;5.85;;
13051;SDS011;6592;47.484;9.726;2023-02-28T15:40:04;13.10;;;6.13;;
13051;SDS011;6592;47.484;9.726;2023-02-28T15:48:01;12.50;;;5.90;;
13051;SDS011;6592;47.484;9.726;2023-02-28T15:50:39;13.00;;;5.88;;
13051;SDS011;6592;47.484;9.726;2023-02-28T15:53:11;11.55;;;6.03;;
13051;SDS011;6592;47.484;9.726;2023-02-28T15:55:44;13.82;;;5.85;;
13051;SDS011;6592;47.484;9.726;2023-02-28T15:58:12;13.45;;;6.07;;
13051;SDS011;6592;47.484;9.726;2023-02-28T16:01:00;11.73;;;5.32;;
13051;SDS011;6592;47.484;9.726;2023-02-28T16:03:42;16.05;;;6.03;;
13051;SDS011;6592;47.484;9.726;2023-02-28T16:06:24;13.80;;;5.87;;
13051;SDS011;6592;47.484;9.726;2023-02-28T16:09:09;12.73;;;5.65;;
13051;SDS011;6592;47.484;9.726;2023-02-28T16:11:42;11.30;;;5.00;;
13051;SDS011;6592;47.484;9.726;2023-02-28T16:14:16;17.95;;;6.20;;
13051;SDS011;6592;47.484;9.726;2023-02-28T16:16:46;15.02;;;6.05;;
13051;SDS011;6592;47.484;9.726;2023-02-28T16:19:16;15.30;;;6.68;;
13051;SDS011;6592;47.484;9.726;2023-02-28T16:21:45;17.17;;;6.83;;
13051;SDS011;6592;47.484;9.726;2023-02-28T16:24:14;16.27;;;6.77;;